createdAt,value
2022-07-26T00:01:31.717Z,26.10
2022-07-26T00:03:59.817Z,26.00
2022-07-26T00:06:26.658Z,25.90
2022-07-26T00:08:53.462Z,25.90
2022-07-26T00:11:21.788Z,25.80
2022-07-26T00:13:48.675Z,25.70
2022-07-26T00:16:15.494Z,25.70
2022-07-26T00:18:42.455Z,25.70
2022-07-26T00:21:09.100Z,25.70
2022-07-26T00:23:38.678Z,25.70
2022-07-26T00:26:05.298Z,25.70
2022-07-26T00:28:31.917Z,25.70
2022-07-26T00:30:58.536Z,25.80
2022-07-26T00:33:25.233Z,25.90
2022-07-26T00:35:51.846Z,25.80
2022-07-26T00:38:18.468Z,25.90
2022-07-26T00:40:45.175Z,25.80
2022-07-26T00:43:11.826Z,25.70
2022-07-26T00:45:38.639Z,25.60
2022-07-26T00:48:05.809Z,25.60
2022-07-26T00:50:32.616Z,25.40
2022-07-26T00:53:00.246Z,25.30
2022-07-26T00:55:27.712Z,25.30
2022-07-26T00:57:54.524Z,25.20
2022-07-26T01:00:27.747Z,25.10
2022-07-26T01:03:00.316Z,25.20
2022-07-26T01:05:27.616Z,25.20
2022-07-26T01:07:54.914Z,25.10
2022-07-26T01:10:21.594Z,25.20
2022-07-26T01:12:48.277Z,25.10
2022-07-26T01:15:16.413Z,25.10
2022-07-26T01:17:44.134Z,25.10
2022-07-26T01:20:12.695Z,25.10
2022-07-26T01:22:39.563Z,25.00
2022-07-26T01:25:07.124Z,25.00
2022-07-26T01:27:39.332Z,25.00
2022-07-26T01:30:09.440Z,25.00
2022-07-26T01:32:36.450Z,25.10
2022-07-26T01:35:04.634Z,25.10
2022-07-26T01:37:31.329Z,24.90
2022-07-26T01:39:58.020Z,24.70
2022-07-26T01:42:25.106Z,24.60
2022-07-26T01:44:51.780Z,24.50
2022-07-26T01:47:18.572Z,24.40
2022-07-26T01:49:45.334Z,24.30
2022-07-26T01:52:12.059Z,24.30
2022-07-26T01:54:38.795Z,24.20
2022-07-26T01:57:05.492Z,24.10
2022-07-26T01:59:32.124Z,24.20
2022-07-26T02:01:58.830Z,24.20
2022-07-26T02:04:44.022Z,24.10
2022-07-26T02:07:13.040Z,24.00
2022-07-26T02:09:40.429Z,24.00
2022-07-26T02:12:07.845Z,24.10
2022-07-26T02:14:34.538Z,24.20
2022-07-26T02:17:01.382Z,24.20
2022-07-26T02:19:28.866Z,24.10
2022-07-26T02:21:55.652Z,24.00
2022-07-26T02:24:22.964Z,24.10
2022-07-26T02:26:49.605Z,24.20
2022-07-26T02:29:16.233Z,24.30
2022-07-26T02:31:42.881Z,24.40
2022-07-26T02:34:15.415Z,24.30
2022-07-26T02:36:42.112Z,24.30
2022-07-26T02:39:08.879Z,24.40
2022-07-26T02:41:35.564Z,24.40
2022-07-26T02:44:02.183Z,24.30
2022-07-26T02:46:28.903Z,24.20
2022-07-26T02:48:55.625Z,24.10
2022-07-26T02:51:22.364Z,24.10
2022-07-26T02:53:49.079Z,24.00
2022-07-26T02:56:15.704Z,23.90
2022-07-26T02:58:42.364Z,23.80
2022-07-26T03:01:09.132Z,23.70
2022-07-26T03:03:36.554Z,23.70
2022-07-26T03:06:03.689Z,23.60
2022-07-26T03:08:31.156Z,23.50
2022-07-26T03:10:57.828Z,23.40
2022-07-26T03:13:24.437Z,23.40
2022-07-26T03:15:51.207Z,23.40
2022-07-26T03:18:17.871Z,23.50
2022-07-26T03:20:44.591Z,23.60
2022-07-26T03:23:11.223Z,23.50
2022-07-26T03:25:38.435Z,23.50
2022-07-26T03:28:05.334Z,23.50
2022-07-26T03:30:32.094Z,23.40
2022-07-26T03:32:59.082Z,23.40
2022-07-26T03:35:25.901Z,23.30
2022-07-26T03:37:52.734Z,23.30
2022-07-26T03:40:20.012Z,23.30
2022-07-26T03:42:48.027Z,23.20
2022-07-26T03:45:15.901Z,23.20
2022-07-26T03:47:42.882Z,23.40
2022-07-26T03:50:10.855Z,23.30
2022-07-26T03:52:37.711Z,23.30
2022-07-26T03:55:24.732Z,23.30
2022-07-26T03:57:51.548Z,23.30
2022-07-26T04:00:18.260Z,23.20
2022-07-26T04:02:45.080Z,23.30
2022-07-26T04:05:11.766Z,23.40
2022-07-26T04:07:52.619Z,23.40
2022-07-26T04:10:20.393Z,23.60
2022-07-26T04:12:47.119Z,23.70
2022-07-26T04:15:16.056Z,23.60
2022-07-26T04:17:43.161Z,23.70
2022-07-26T04:20:11.427Z,23.90
2022-07-26T04:22:39.405Z,24.00
2022-07-26T04:25:07.579Z,24.10
2022-07-26T04:27:34.726Z,24.00
2022-07-26T04:30:01.609Z,23.90
2022-07-26T04:32:28.353Z,23.80
2022-07-26T04:34:55.034Z,23.60
2022-07-26T04:37:21.628Z,23.70
2022-07-26T04:39:51.725Z,23.80
2022-07-26T04:42:21.526Z,23.80
2022-07-26T04:44:48.190Z,23.90
2022-07-26T04:47:14.898Z,23.80
2022-07-26T04:49:42.188Z,23.70
2022-07-26T04:52:08.811Z,23.50
2022-07-26T04:54:35.528Z,23.30
2022-07-26T04:57:02.175Z,23.30
2022-07-26T04:59:28.917Z,23.20
2022-07-26T05:02:00.105Z,23.10
2022-07-26T05:04:27.185Z,23.10
2022-07-26T05:06:53.848Z,23.20
2022-07-26T05:09:20.486Z,23.30
2022-07-26T05:11:47.203Z,23.40
2022-07-26T05:14:13.804Z,23.30
2022-07-26T05:16:44.262Z,23.30
2022-07-26T05:19:11.623Z,23.10
2022-07-26T05:21:38.695Z,23.00
2022-07-26T05:24:07.939Z,23.10
2022-07-26T05:26:35.127Z,23.00
2022-07-26T05:29:02.105Z,23.00
2022-07-26T05:31:28.815Z,22.90
2022-07-26T05:33:55.614Z,22.90
2022-07-26T05:36:22.256Z,23.00
2022-07-26T05:38:48.875Z,23.20
2022-07-26T05:41:15.547Z,23.10
2022-07-26T05:43:42.385Z,23.20
2022-07-26T05:46:10.834Z,23.20
2022-07-26T05:48:38.635Z,23.10
2022-07-26T05:51:05.479Z,23.20
2022-07-26T05:53:32.098Z,23.40
2022-07-26T05:55:58.761Z,23.40
2022-07-26T05:58:25.488Z,23.50
2022-07-26T06:00:53.480Z,23.60
2022-07-26T06:03:22.933Z,23.60
2022-07-26T06:05:51.218Z,23.40
2022-07-26T06:08:18.931Z,23.40
2022-07-26T06:10:47.125Z,23.20
2022-07-26T06:13:13.917Z,23.20
2022-07-26T06:15:40.640Z,23.30
2022-07-26T06:18:07.299Z,23.50
2022-07-26T06:20:34.518Z,23.60
2022-07-26T06:23:01.186Z,23.60
2022-07-26T06:25:27.955Z,23.50
2022-07-26T06:27:54.625Z,23.30
2022-07-26T06:30:21.258Z,23.20
2022-07-26T06:32:47.997Z,23.10
2022-07-26T06:35:15.064Z,22.80
2022-07-26T06:37:42.902Z,22.90
2022-07-26T06:40:11.903Z,22.80
2022-07-26T06:42:38.746Z,23.10
2022-07-26T06:45:06.414Z,23.30
2022-07-26T06:47:33.788Z,23.50
2022-07-26T06:50:00.536Z,23.50
2022-07-26T06:52:27.207Z,23.20
2022-07-26T06:54:53.888Z,23.00
2022-07-26T06:57:20.539Z,23.00
2022-07-26T06:59:47.139Z,23.00
2022-07-26T07:02:13.829Z,23.00
2022-07-26T07:04:40.590Z,23.00
2022-07-26T07:07:08.369Z,23.10
2022-07-26T07:09:36.025Z,23.10
2022-07-26T07:12:09.648Z,23.10
2022-07-26T07:14:37.112Z,23.20
2022-07-26T07:17:04.040Z,23.10
2022-07-26T07:19:38.677Z,23.20
2022-07-26T07:22:05.971Z,23.30
2022-07-26T07:24:32.791Z,23.30
2022-07-26T07:27:02.542Z,23.50
2022-07-26T07:29:29.308Z,23.70
2022-07-26T07:31:56.509Z,24.00
2022-07-26T07:34:24.009Z,24.10
2022-07-26T07:36:52.268Z,24.30
2022-07-26T07:39:19.219Z,24.30
2022-07-26T07:41:47.797Z,24.20
2022-07-26T07:44:14.628Z,24.00
2022-07-26T07:46:41.351Z,23.90
2022-07-26T07:49:08.756Z,24.00
2022-07-26T07:51:36.492Z,24.20
2022-07-26T07:54:05.864Z,24.20
2022-07-26T07:56:33.053Z,24.20
2022-07-26T07:58:59.883Z,24.20
2022-07-26T08:01:40.619Z,24.20
2022-07-26T08:04:09.053Z,24.20
2022-07-26T08:06:36.296Z,24.10
2022-07-26T08:09:03.720Z,24.00
2022-07-26T08:11:30.753Z,23.90
2022-07-26T08:14:00.577Z,23.90
2022-07-26T08:16:27.286Z,24.00
2022-07-26T08:18:57.986Z,24.00
2022-07-26T08:21:27.505Z,24.20
2022-07-26T08:23:56.004Z,24.30
2022-07-26T08:26:22.663Z,24.60
2022-07-26T08:28:49.446Z,24.80
2022-07-26T08:31:27.304Z,24.80
2022-07-26T08:33:54.041Z,24.70
2022-07-26T08:36:20.683Z,24.60
2022-07-26T08:38:48.339Z,24.60
2022-07-26T08:41:16.914Z,24.60
2022-07-26T08:43:51.141Z,24.50
2022-07-26T08:46:24.155Z,24.50
2022-07-26T08:48:51.861Z,24.30
2022-07-26T08:51:22.850Z,24.20
2022-07-26T08:53:50.473Z,24.10
2022-07-26T08:56:17.192Z,24.20
2022-07-26T08:58:43.936Z,24.20
2022-07-26T09:01:12.979Z,24.40
2022-07-26T09:03:40.641Z,24.40
2022-07-26T09:06:22.417Z,24.50
2022-07-26T09:08:53.526Z,24.70
2022-07-26T09:11:26.318Z,24.80
2022-07-26T09:14:01.205Z,24.70
2022-07-26T09:16:29.133Z,24.60
2022-07-26T09:19:07.496Z,24.60
2022-07-26T09:21:38.831Z,24.60
2022-07-26T09:24:05.935Z,24.50
2022-07-26T09:26:33.066Z,24.60
2022-07-26T09:29:12.352Z,24.50
2022-07-26T09:31:39.879Z,24.50
2022-07-26T09:34:07.773Z,24.40
2022-07-26T09:36:50.520Z,24.50
2022-07-26T09:39:17.293Z,24.50
2022-07-26T09:42:04.757Z,24.60
2022-07-26T09:44:47.789Z,24.80
2022-07-26T09:47:15.183Z,24.90
2022-07-26T09:49:43.735Z,25.00
2022-07-26T09:52:21.333Z,25.00
2022-07-26T09:54:49.501Z,24.80
2022-07-26T09:57:18.531Z,24.60
2022-07-26T09:59:46.229Z,24.40
2022-07-26T10:02:14.127Z,24.50
2022-07-26T10:04:42.312Z,24.50
2022-07-26T10:07:10.427Z,24.50
2022-07-26T10:09:53.021Z,24.60
2022-07-26T10:12:21.165Z,24.70
2022-07-26T10:14:51.691Z,24.80
2022-07-26T10:17:31.677Z,25.00
2022-07-26T10:20:17.062Z,25.10
2022-07-26T10:22:50.497Z,25.20
2022-07-26T10:25:17.234Z,25.10
2022-07-26T10:27:48.899Z,25.20
2022-07-26T10:30:27.762Z,25.20
2022-07-26T10:33:01.823Z,25.10
2022-07-26T10:35:34.375Z,25.00
2022-07-26T10:38:09.430Z,25.00
2022-07-26T10:40:37.865Z,25.00
2022-07-26T10:46:19.114Z,25.40
2022-07-26T10:49:04.106Z,25.50
2022-07-26T10:51:34.432Z,25.40
2022-07-26T10:54:09.812Z,25.40
2022-07-26T10:56:37.517Z,25.40
2022-07-26T10:59:05.730Z,25.50
2022-07-26T11:01:40.961Z,25.50
2022-07-26T11:04:22.267Z,25.40
2022-07-26T11:06:49.635Z,25.40
2022-07-26T11:09:18.437Z,25.20
2022-07-26T11:11:48.679Z,25.20
2022-07-26T11:14:17.620Z,25.40
2022-07-26T11:16:47.547Z,25.60
2022-07-26T11:19:25.144Z,25.90
2022-07-26T11:21:58.499Z,26.00
2022-07-26T11:24:26.703Z,26.10
2022-07-26T11:26:53.941Z,26.00
2022-07-26T11:29:37.892Z,25.70
2022-07-26T11:32:17.799Z,25.50
2022-07-26T11:34:46.547Z,25.60
2022-07-26T11:37:14.123Z,25.40
2022-07-26T11:39:40.994Z,25.30
2022-07-26T11:42:13.233Z,25.10
2022-07-26T11:44:44.738Z,25.00
2022-07-26T11:47:14.032Z,25.10
2022-07-26T11:49:52.802Z,25.20
2022-07-26T11:52:32.275Z,25.30
2022-07-26T11:54:59.485Z,25.40
2022-07-26T11:57:31.203Z,25.60
2022-07-26T11:59:59.532Z,25.50
2022-07-26T12:02:27.952Z,25.40
2022-07-26T12:05:13.849Z,25.50
2022-07-26T12:07:56.606Z,25.70
2022-07-26T12:10:24.285Z,25.90
2022-07-26T12:13:05.540Z,26.00
2022-07-26T12:15:44.548Z,26.00
2022-07-26T12:18:11.295Z,25.90
2022-07-26T12:20:37.938Z,25.80
2022-07-26T12:23:06.033Z,25.90
2022-07-26T12:25:32.878Z,25.80
2022-07-26T12:27:59.511Z,25.90
2022-07-26T12:30:30.878Z,25.70
2022-07-26T12:33:02.078Z,25.70
2022-07-26T12:35:33.412Z,25.70
2022-07-26T12:38:00.319Z,25.60
2022-07-26T12:40:29.250Z,25.60
2022-07-26T12:43:01.136Z,25.70
2022-07-26T12:45:31.859Z,25.60
2022-07-26T12:48:00.733Z,25.70
2022-07-26T12:50:29.225Z,25.90
2022-07-26T12:53:04.855Z,26.10
2022-07-26T12:55:31.785Z,26.30
2022-07-26T12:57:59.364Z,26.00
2022-07-26T13:00:26.588Z,25.90
2022-07-26T13:02:55.801Z,26.00
2022-07-26T13:05:23.203Z,26.10
2022-07-26T13:07:52.491Z,26.30
2022-07-26T13:10:33.209Z,26.30
2022-07-26T13:13:01.335Z,26.20
2022-07-26T13:15:36.604Z,26.40
2022-07-26T13:18:07.748Z,26.60
2022-07-26T13:20:36.651Z,26.60
2022-07-26T13:23:03.460Z,26.50
2022-07-26T13:25:35.071Z,26.40
2022-07-26T13:28:07.030Z,26.70
2022-07-26T13:30:33.777Z,26.70
2022-07-26T13:33:00.532Z,26.50
2022-07-26T13:35:27.265Z,26.30
2022-07-26T13:37:53.912Z,26.40
2022-07-26T13:40:20.555Z,26.30
2022-07-26T13:42:49.946Z,26.10
2022-07-26T13:45:16.973Z,26.10
2022-07-26T13:47:43.738Z,26.20
2022-07-26T13:50:10.711Z,26.40
2022-07-26T13:52:37.544Z,26.50
2022-07-26T13:55:04.649Z,26.50
2022-07-26T13:57:47.987Z,26.60
2022-07-26T14:00:21.375Z,26.70
2022-07-26T14:02:48.152Z,26.70
2022-07-26T14:05:14.944Z,26.70
2022-07-26T14:07:42.742Z,26.80
2022-07-26T14:10:10.790Z,26.90
2022-07-26T14:12:38.167Z,26.70
2022-07-26T14:15:11.478Z,26.60
2022-07-26T14:17:38.951Z,26.70
2022-07-26T14:20:06.306Z,26.60
2022-07-26T14:22:33.300Z,26.80
2022-07-26T14:25:00.113Z,27.10
2022-07-26T14:27:26.914Z,27.30
2022-07-26T14:29:53.800Z,27.50
2022-07-26T14:32:22.191Z,27.50
2022-07-26T14:34:49.640Z,27.50
2022-07-26T14:37:42.663Z,27.40
2022-07-26T14:40:05.866Z,27.30
2022-07-26T14:42:32.808Z,27.40
2022-07-26T14:44:59.851Z,27.50
2022-07-26T14:47:26.537Z,27.80
2022-07-26T14:49:53.331Z,27.80
2022-07-26T14:52:20.073Z,27.50
2022-07-26T14:54:46.839Z,27.50
2022-07-26T14:57:13.460Z,27.50
2022-07-26T14:59:40.095Z,27.50
2022-07-26T15:02:06.823Z,27.60
2022-07-26T15:04:33.584Z,27.50
2022-07-26T15:07:00.269Z,27.50
2022-07-26T15:09:26.955Z,27.40
2022-07-26T15:11:53.693Z,27.50
2022-07-26T15:14:20.447Z,28.00
2022-07-26T15:16:47.211Z,28.10
2022-07-26T15:19:13.985Z,28.30
2022-07-26T15:21:40.627Z,28.50
2022-07-26T15:24:09.663Z,28.70
2022-07-26T15:26:36.520Z,28.70
2022-07-26T15:29:03.200Z,28.70
2022-07-26T15:31:37.434Z,28.70
2022-07-26T15:34:07.484Z,28.70
2022-07-26T15:36:34.858Z,28.60
2022-07-26T15:39:14.716Z,28.70
2022-07-26T15:41:43.151Z,29.00
2022-07-26T15:44:11.501Z,29.10
2022-07-26T15:46:39.026Z,29.00
2022-07-26T15:49:07.434Z,28.90
2022-07-26T15:51:34.543Z,28.70
2022-07-26T15:54:02.749Z,28.90
2022-07-26T15:56:29.467Z,29.00
2022-07-26T15:58:56.210Z,29.20
2022-07-26T16:01:23.038Z,29.30
2022-07-26T16:03:49.803Z,29.50
2022-07-26T16:06:16.445Z,29.40
2022-07-26T16:09:05.921Z,29.50
2022-07-26T16:11:30.856Z,29.60
2022-07-26T16:14:01.094Z,29.40
2022-07-26T16:16:29.997Z,29.40
2022-07-26T16:18:57.470Z,29.60
2022-07-26T16:21:24.784Z,29.60
2022-07-26T16:23:51.547Z,29.50
2022-07-26T16:26:18.910Z,29.30
2022-07-26T16:28:45.693Z,28.70
2022-07-26T16:31:12.633Z,28.00
2022-07-26T16:33:45.965Z,27.60
2022-07-26T16:36:14.803Z,27.60
2022-07-26T16:38:41.539Z,27.80
2022-07-26T16:41:08.340Z,28.10
2022-07-26T16:43:35.467Z,28.30
2022-07-26T16:46:02.962Z,28.20
2022-07-26T16:48:29.751Z,28.50
2022-07-26T16:50:56.733Z,28.80
2022-07-26T16:53:23.770Z,29.40
2022-07-26T16:55:51.939Z,30.20
2022-07-26T16:58:19.462Z,30.60
2022-07-26T17:00:46.965Z,30.80
2022-07-26T17:03:15.717Z,31.00
2022-07-26T17:05:44.526Z,31.20
2022-07-26T17:08:11.250Z,31.30
2022-07-26T17:10:38.437Z,30.70
2022-07-26T17:13:05.231Z,30.00
2022-07-26T17:15:31.946Z,29.70
2022-07-26T17:17:58.931Z,30.00
2022-07-26T17:20:25.750Z,30.00
2022-07-26T17:22:52.613Z,30.00
2022-07-26T17:25:19.766Z,29.80
2022-07-26T17:27:47.818Z,29.50
2022-07-26T17:30:14.659Z,29.40
2022-07-26T17:32:41.699Z,29.50
2022-07-26T17:35:09.103Z,29.70
2022-07-26T17:37:36.139Z,29.80
2022-07-26T17:40:07.791Z,29.90
2022-07-26T17:42:35.069Z,29.50
2022-07-26T17:45:02.073Z,29.80
2022-07-26T17:47:30.479Z,30.00
2022-07-26T17:52:50.806Z,29.20
2022-07-26T17:55:18.852Z,28.60
2022-07-26T17:57:46.370Z,28.40
2022-07-26T18:00:13.764Z,28.40
2022-07-26T18:02:40.756Z,28.50
2022-07-26T18:05:07.770Z,28.80
2022-07-26T18:07:34.520Z,29.10
2022-07-26T18:10:01.327Z,28.80
2022-07-26T18:12:28.356Z,28.70
2022-07-26T18:14:55.082Z,28.70
2022-07-26T18:17:22.056Z,28.70
2022-07-26T18:19:48.768Z,28.70
2022-07-26T18:22:15.572Z,28.70
2022-07-26T18:24:42.628Z,28.50
2022-07-26T18:27:09.490Z,28.00
2022-07-26T18:29:36.144Z,27.50
2022-07-26T18:32:02.817Z,27.20
2022-07-26T18:34:29.910Z,27.10
2022-07-26T18:36:56.714Z,27.10
2022-07-26T18:39:23.414Z,27.20
2022-07-26T18:41:50.323Z,27.00
2022-07-26T18:44:18.336Z,26.90
2022-07-26T18:46:45.247Z,26.90
2022-07-26T18:49:16.117Z,26.90
2022-07-26T18:51:48.508Z,26.80
2022-07-26T18:54:15.908Z,26.70
2022-07-26T18:56:42.790Z,26.70
2022-07-26T18:59:10.025Z,26.50
2022-07-26T19:01:37.297Z,26.40
2022-07-26T19:04:07.032Z,26.50
2022-07-26T19:06:35.344Z,26.60
2022-07-26T19:09:02.050Z,26.60
2022-07-26T19:11:30.127Z,26.60
2022-07-26T19:13:56.841Z,26.60
2022-07-26T19:16:23.680Z,26.50
2022-07-26T19:18:55.332Z,26.40
2022-07-26T19:21:25.047Z,26.40
2022-07-26T19:23:51.881Z,26.40
2022-07-26T19:26:18.907Z,26.40
2022-07-26T19:28:45.777Z,26.30
2022-07-26T19:31:12.491Z,26.40
2022-07-26T19:33:39.210Z,26.20
2022-07-26T19:36:06.124Z,26.10
2022-07-26T19:38:33.171Z,26.00
2022-07-26T19:41:01.019Z,25.80
2022-07-26T19:43:28.095Z,25.80
2022-07-26T19:45:55.013Z,25.80
2022-07-26T19:48:21.747Z,25.70
2022-07-26T19:50:48.712Z,25.90
2022-07-26T19:53:15.516Z,26.10
2022-07-26T19:55:42.518Z,26.10
2022-07-26T19:58:09.679Z,26.10
2022-07-26T20:00:36.443Z,26.10
2022-07-26T20:03:03.682Z,26.20
2022-07-26T20:05:30.566Z,26.10
2022-07-26T20:07:57.996Z,26.00
2022-07-26T20:10:29.992Z,26.10
2022-07-26T20:12:58.583Z,26.10
2022-07-26T20:15:26.013Z,26.20
2022-07-26T20:17:52.683Z,26.20
2022-07-26T20:20:20.002Z,26.30
2022-07-26T20:22:46.625Z,26.30
2022-07-26T20:25:15.809Z,26.20
2022-07-26T20:27:49.742Z,26.00
2022-07-26T20:30:16.811Z,25.90
2022-07-26T20:32:44.195Z,25.70
2022-07-26T20:35:10.979Z,25.70
2022-07-26T20:37:37.907Z,25.80
2022-07-26T20:40:05.150Z,25.80
2022-07-26T20:42:35.017Z,25.80
2022-07-26T20:45:02.092Z,25.80
2022-07-26T20:47:28.867Z,25.90
2022-07-26T20:49:59.672Z,26.00
2022-07-26T20:52:29.629Z,26.00
2022-07-26T20:54:56.317Z,25.80
2022-07-26T20:57:23.519Z,25.70
2022-07-26T20:59:50.406Z,25.70
2022-07-26T21:02:17.257Z,25.80
2022-07-26T21:04:45.032Z,25.90
2022-07-26T21:07:11.857Z,26.00
2022-07-26T21:09:38.600Z,26.00
2022-07-26T21:12:05.723Z,25.90
2022-07-26T21:14:32.459Z,25.90
2022-07-26T21:16:59.575Z,25.90
2022-07-26T21:19:26.391Z,25.70
2022-07-26T21:21:54.614Z,25.70
2022-07-26T21:24:21.409Z,25.60
2022-07-26T21:26:48.170Z,25.70
2022-07-26T21:29:15.281Z,25.80
2022-07-26T21:31:42.207Z,25.80
2022-07-26T21:34:10.158Z,25.90
2022-07-26T21:36:40.206Z,26.00
2022-07-26T21:39:07.894Z,26.10
2022-07-26T21:41:35.261Z,26.20
2022-07-26T21:44:02.774Z,26.20
2022-07-26T21:46:29.729Z,26.30
2022-07-26T21:48:56.583Z,26.40
2022-07-26T21:51:23.308Z,26.50
2022-07-26T21:53:49.963Z,26.50
2022-07-26T21:56:16.606Z,26.60
2022-07-26T21:58:43.231Z,26.60
2022-07-26T22:01:12.406Z,26.50
2022-07-26T22:03:40.472Z,26.30
2022-07-26T22:06:07.706Z,26.20
2022-07-26T22:08:34.844Z,26.10
2022-07-26T22:11:01.832Z,26.10
2022-07-26T22:13:28.435Z,25.90
2022-07-26T22:15:55.063Z,25.90
2022-07-26T22:18:21.789Z,25.90
2022-07-26T22:20:49.801Z,25.90
2022-07-26T22:23:17.876Z,25.90
2022-07-26T22:25:45.331Z,26.00
2022-07-26T22:28:17.940Z,26.00
2022-07-26T22:30:46.046Z,25.90
2022-07-26T22:33:12.859Z,25.80
2022-07-26T22:35:39.758Z,25.70
2022-07-26T22:38:09.847Z,25.80
2022-07-26T22:40:37.764Z,25.80
2022-07-26T22:43:05.696Z,25.90
2022-07-26T22:45:32.626Z,25.90
2022-07-26T22:48:01.151Z,25.90
2022-07-26T22:50:27.914Z,25.60
2022-07-26T22:52:55.305Z,25.00
2022-07-26T22:55:22.382Z,24.70
2022-07-26T22:57:49.564Z,24.50
2022-07-26T23:00:18.403Z,24.30
2022-07-26T23:02:45.551Z,24.20
2022-07-26T23:05:14.505Z,24.00
2022-07-26T23:07:41.887Z,24.00
2022-07-26T23:10:12.386Z,24.20
2022-07-26T23:12:40.012Z,24.40
2022-07-26T23:15:10.022Z,24.60
2022-07-26T23:17:37.549Z,24.60
2022-07-26T23:20:05.630Z,24.40
2022-07-26T23:22:32.255Z,24.30
2022-07-26T23:24:58.897Z,24.30
2022-07-26T23:27:25.514Z,24.20
2022-07-26T23:29:52.157Z,24.30
2022-07-26T23:32:18.794Z,24.30
2022-07-26T23:34:45.455Z,24.20
2022-07-26T23:37:12.179Z,24.10
2022-07-26T23:39:38.919Z,24.10
2022-07-26T23:42:07.099Z,24.30
2022-07-26T23:44:34.208Z,24.60
2022-07-26T23:47:01.055Z,24.50
2022-07-26T23:49:28.046Z,24.30
2022-07-26T23:51:54.771Z,24.50
2022-07-26T23:54:21.559Z,24.70
2022-07-26T23:56:48.296Z,24.90
2022-07-26T23:59:15.384Z,25.00
